HEBA/HBE METAR and TAF weather

Enter ICAO airport designator
Station Type Date Time Source
HEBA METAR 2019/08/24 09:00 UTC NOAA

HEBA 240900Z 29008KT CAVOK 31/22 Q1011 NOSIG


Station Type Date Time Source
HEBA Decoded METAR 2019/08/24 09:00 UTC NOAA

Station name not available
Aug 24, 2019 - 05:00 AM EDT / 2019.08.24 0900 UTC
Wind: from the WNW (290 degrees) at 9 MPH (8 KT):0
Visibility: greater than 7 mile(s):0
Temperature: 87 F (31 C)
Heat index: 92.3 F (33.5 C):1
Dew Point: 71 F (22 C)
Relative Humidity: 58%
Pressure (altimeter): 29.85 in. Hg (1011 hPa)
ob: HEBA 240900Z 29008KT CAVOK 31/22 Q1011 NOSIG
cycle: 9

Station Type Date Time Source
HEBA TAF 2019/08/24 06:33 UTC NOAA

TAF HEBA 240500Z 2406/2512 32011KT 9999 SCT020

Example: see airport list